HTPE/PMA METAR and TAF weather

Enter ICAO airport designator
Station Type Date Time Source
HTPE METAR 2024/04/23 11:10 UTC NOAA

HTPE 231110Z 17014KT 3000 RA FEW015 FEW017CB OVC070 25/25 Q1011


Station Type Date Time Source
HTPE Decoded METAR 2024/04/23 11:10 UTC NOAA

Pemba / Karume Airport, Tanzania (HTPE) 05-15S 039-49E
Apr 23, 2024 - 07:10 AM EDT / 2024.04.23 1110 UTC
Wind: from the S (170 degrees) at 16 MPH (14 KT):0
Visibility: 1 mile(s):0
Sky conditions: overcast
Weather: rain; Cumulonimbus clouds observed
Temperature: 77 F (25 C)
Dew Point: 77 F (25 C)
Relative Humidity: 100%
Pressure (altimeter): 29.85 in. Hg (1011 hPa)
ob: HTPE 231110Z 17014KT 3000 RA FEW015 FEW017CB OVC070 25/25 Q1011
cycle: 11

Station Type Date Time Source
HTPE TAF 2012/09/13 12:46 UTC NOAA